ISR762 LKPR-LLBG
Flight info
| Callsign | ISR762 |
|---|---|
| Flight time | 3h 14m |
| Altitude | 35000 |
| Route | VOZ DCT PISAM DCT STO DCT ABETI DCT BABIT DCT OKLOP DCT NISVA DCT VIT DCT USALI DCT RODIP UN131 PIBOM DCT BELGI/N0447F370 UN131 KULAR UT39 TOMBI DCT IDAKU L35 PIKOG L609 ZUKKO |
| Aircraft | A320/M-SDE2FGIJ1LORVWY/SB1 |
Departure
| Time | 2026-05-05 07:55 |
|---|---|
| Airport | Václav Havel Airport Prague (LKPR) |
Arrival
| Time | 2026-05-05 11:09 |
|---|---|
| Airport | Ben Gurion International Airport (LLBG) |
| Time | Latitude | Longitude | Altitude | Speed | Heading |
|---|---|---|---|---|---|
| 2026-05-05 07:26 | 50.10995 | 14.26810 | 1171 ft | 0 kts | 64° |
| 2026-05-05 07:44 | 50.10994 | 14.26806 | 1146 ft | 3 kts | 64° |
| 2026-05-05 07:45 | 50.10984 | 14.26775 | 1169 ft | 3 kts | 60° |
| 2026-05-05 07:45 | 50.10972 | 14.26745 | 1172 ft | 3 kts | 54° |
| 2026-05-05 07:45 | 50.10958 | 14.26718 | 1171 ft | 3 kts | 39° |
| 2026-05-05 07:45 | 50.10941 | 14.26703 | 1173 ft | 3 kts | 357° |
| 2026-05-05 07:46 | 50.10932 | 14.26705 | 1172 ft | 0 kts | 319° |
| 2026-05-05 07:48 | 50.10934 | 14.26702 | 1169 ft | 2 kts | 320° |
| 2026-05-05 07:48 | 50.10957 | 14.26678 | 1171 ft | 6 kts | 328° |
| 2026-05-05 07:48 | 50.11010 | 14.26626 | 1174 ft | 11 kts | 328° |
| 2026-05-05 07:49 | 50.11038 | 14.26516 | 1173 ft | 13 kts | 245° |
| 2026-05-05 07:49 | 50.10967 | 14.26430 | 1172 ft | 14 kts | 214° |
| 2026-05-05 07:49 | 50.10872 | 14.26327 | 1174 ft | 20 kts | 214° |
| 2026-05-05 07:49 | 50.10742 | 14.26189 | 1171 ft | 24 kts | 214° |
| 2026-05-05 07:50 | 50.10601 | 14.26045 | 1169 ft | 24 kts | 211° |
| 2026-05-05 07:50 | 50.10503 | 14.25987 | 1175 ft | 14 kts | 159° |
| 2026-05-05 07:50 | 50.10428 | 14.26127 | 1172 ft | 20 kts | 127° |
| 2026-05-05 07:50 | 50.10331 | 14.26327 | 1175 ft | 26 kts | 128° |
| 2026-05-05 07:51 | 50.10212 | 14.26572 | 1172 ft | 30 kts | 126° |
| 2026-05-05 07:51 | 50.10092 | 14.26818 | 1186 ft | 27 kts | 127° |
| 2026-05-05 07:51 | 50.09989 | 14.27034 | 1197 ft | 23 kts | 127° |
| 2026-05-05 07:51 | 50.09892 | 14.27233 | 1202 ft | 25 kts | 127° |
| 2026-05-05 07:52 | 50.09768 | 14.27443 | 1205 ft | 27 kts | 135° |
| 2026-05-05 07:52 | 50.09637 | 14.27644 | 1209 ft | 26 kts | 135° |
| 2026-05-05 07:52 | 50.09511 | 14.27836 | 1213 ft | 25 kts | 135° |
| 2026-05-05 07:52 | 50.09389 | 14.28026 | 1215 ft | 25 kts | 136° |
| 2026-05-05 07:53 | 50.09267 | 14.28211 | 1213 ft | 22 kts | 135° |
| 2026-05-05 07:53 | 50.09139 | 14.28257 | 1211 ft | 21 kts | 216° |
| 2026-05-05 07:53 | 50.09069 | 14.28147 | 1208 ft | 13 kts | 248° |
| 2026-05-05 07:53 | 50.09118 | 14.28014 | 1209 ft | 18 kts | 308° |
| 2026-05-05 07:54 | 50.09315 | 14.27609 | 1212 ft | 79 kts | 307° |
| 2026-05-05 07:54 | 50.09763 | 14.26682 | 1207 ft | 133 kts | 307° |
| 2026-05-05 07:54 | 50.10416 | 14.25341 | 1200 ft | 174 kts | 309° |
| 2026-05-05 07:54 | 50.11155 | 14.23837 | 1763 ft | 173 kts | 310° |
| 2026-05-05 07:55 | 50.11875 | 14.22327 | 2408 ft | 174 kts | 309° |
| 2026-05-05 07:55 | 50.12606 | 14.20804 | 2911 ft | 179 kts | 309° |
| 2026-05-05 07:55 | 50.13408 | 14.19151 | 3086 ft | 203 kts | 309° |
| 2026-05-05 07:55 | 50.14304 | 14.17298 | 3275 ft | 225 kts | 308° |
| 2026-05-05 07:56 | 50.15292 | 14.15249 | 3531 ft | 249 kts | 308° |
| 2026-05-05 07:56 | 50.16377 | 14.12998 | 3926 ft | 269 kts | 308° |
| 2026-05-05 07:56 | 50.17520 | 14.10619 | 4615 ft | 278 kts | 307° |
| 2026-05-05 07:56 | 50.18389 | 14.07918 | 5329 ft | 283 kts | 279° |
| 2026-05-05 07:57 | 50.18219 | 14.04912 | 6141 ft | 280 kts | 244° |
| 2026-05-05 07:57 | 50.17064 | 14.02544 | 6948 ft | 275 kts | 219° |
| 2026-05-05 07:57 | 50.15566 | 14.00707 | 7765 ft | 274 kts | 215° |
| 2026-05-05 07:57 | 50.13906 | 13.99251 | 8517 ft | 276 kts | 198° |
| 2026-05-05 07:58 | 50.12018 | 13.98723 | 9260 ft | 278 kts | 181° |
| 2026-05-05 07:58 | 50.10091 | 13.99082 | 9986 ft | 282 kts | 166° |
| 2026-05-05 07:58 | 50.08234 | 14.00223 | 10417 ft | 297 kts | 159° |
| 2026-05-05 07:58 | 50.06276 | 14.01565 | 10544 ft | 319 kts | 158° |
| 2026-05-05 07:59 | 50.04182 | 14.03017 | 10687 ft | 339 kts | 158° |
| 2026-05-05 07:59 | 50.01998 | 14.04542 | 11119 ft | 348 kts | 158° |
| 2026-05-05 07:59 | 49.99780 | 14.06095 | 11714 ft | 352 kts | 158° |
| 2026-05-05 07:59 | 49.97540 | 14.07666 | 12338 ft | 355 kts | 158° |
| 2026-05-05 08:00 | 49.95277 | 14.09249 | 12960 ft | 358 kts | 158° |
| 2026-05-05 08:00 | 49.92996 | 14.10836 | 13568 ft | 361 kts | 158° |
| 2026-05-05 08:00 | 49.90693 | 14.12436 | 14084 ft | 365 kts | 158° |
| 2026-05-05 08:00 | 49.88367 | 14.14062 | 14610 ft | 368 kts | 156° |
| 2026-05-05 08:01 | 49.86164 | 14.16142 | 15110 ft | 375 kts | 145° |
| 2026-05-05 08:01 | 49.84235 | 14.18902 | 15605 ft | 381 kts | 133° |
| 2026-05-05 08:01 | 49.82601 | 14.22161 | 16141 ft | 385 kts | 129° |
| 2026-05-05 08:01 | 49.80988 | 14.25486 | 16671 ft | 388 kts | 129° |
| 2026-05-05 08:02 | 49.79359 | 14.28832 | 17199 ft | 391 kts | 129° |
| 2026-05-05 08:02 | 49.77715 | 14.32199 | 17735 ft | 394 kts | 129° |
| 2026-05-05 08:02 | 49.76055 | 14.35595 | 18263 ft | 397 kts | 129° |
| 2026-05-05 08:02 | 49.74379 | 14.39013 | 18724 ft | 401 kts | 129° |
| 2026-05-05 08:03 | 49.72686 | 14.42461 | 19189 ft | 404 kts | 129° |
| 2026-05-05 08:03 | 49.70978 | 14.45933 | 19671 ft | 408 kts | 129° |
| 2026-05-05 08:03 | 49.69250 | 14.49431 | 20148 ft | 411 kts | 129° |
| 2026-05-05 08:03 | 49.67507 | 14.52952 | 20609 ft | 414 kts | 129° |
| 2026-05-05 08:04 | 49.65866 | 14.56631 | 21035 ft | 418 kts | 124° |
| 2026-05-05 08:04 | 49.64312 | 14.60444 | 21466 ft | 421 kts | 124° |
| 2026-05-05 08:04 | 49.62748 | 14.64275 | 21880 ft | 424 kts | 124° |
| 2026-05-05 08:04 | 49.61171 | 14.68133 | 22281 ft | 426 kts | 124° |
| 2026-05-05 08:05 | 49.59584 | 14.72014 | 22676 ft | 429 kts | 124° |
| 2026-05-05 08:05 | 49.58006 | 14.75864 | 23057 ft | 432 kts | 124° |
| 2026-05-05 08:05 | 49.56394 | 14.79784 | 23438 ft | 435 kts | 124° |
| 2026-05-05 08:05 | 49.54682 | 14.83625 | 23748 ft | 436 kts | 131° |
| 2026-05-05 08:06 | 49.52609 | 14.87017 | 24074 ft | 435 kts | 140° |
| 2026-05-05 08:06 | 49.50202 | 14.89829 | 24391 ft | 435 kts | 150° |
| 2026-05-05 08:06 | 49.47555 | 14.92073 | 24700 ft | 435 kts | 154° |
| 2026-05-05 08:06 | 49.44871 | 14.94232 | 25022 ft | 436 kts | 154° |
| 2026-05-05 08:07 | 49.42179 | 14.96406 | 25340 ft | 438 kts | 154° |
| 2026-05-05 08:07 | 49.39483 | 14.98593 | 25646 ft | 439 kts | 154° |
| 2026-05-05 08:07 | 49.36773 | 15.00794 | 25954 ft | 441 kts | 154° |
| 2026-05-05 08:07 | 49.34055 | 15.02997 | 26269 ft | 443 kts | 154° |
| 2026-05-05 08:08 | 49.31326 | 15.05198 | 26574 ft | 445 kts | 154° |
| 2026-05-05 08:08 | 49.28582 | 15.07402 | 26971 ft | 444 kts | 154° |
| 2026-05-05 08:08 | 49.26772 | 15.08853 | 27267 ft | 443 kts | 154° |
| 2026-05-05 08:08 | 49.24047 | 15.11038 | 27715 ft | 442 kts | 154° |
| 2026-05-05 08:09 | 49.21331 | 15.13220 | 28166 ft | 440 kts | 154° |
| 2026-05-05 08:09 | 49.18621 | 15.15394 | 28613 ft | 439 kts | 154° |
| 2026-05-05 08:09 | 49.15918 | 15.17555 | 29054 ft | 438 kts | 154° |
| 2026-05-05 08:09 | 49.13221 | 15.19707 | 29489 ft | 437 kts | 154° |
| 2026-05-05 08:10 | 49.10539 | 15.21846 | 30008 ft | 434 kts | 154° |
| 2026-05-05 08:10 | 49.07871 | 15.23976 | 30399 ft | 432 kts | 154° |
| 2026-05-05 08:10 | 49.05208 | 15.26097 | 30757 ft | 432 kts | 154° |
| 2026-05-05 08:10 | 49.02547 | 15.28210 | 31112 ft | 431 kts | 154° |
| 2026-05-05 08:11 | 48.99885 | 15.30321 | 31453 ft | 431 kts | 154° |
| 2026-05-05 08:11 | 48.97226 | 15.32430 | 31811 ft | 431 kts | 154° |
| 2026-05-05 08:11 | 48.94566 | 15.34531 | 32164 ft | 431 kts | 155° |
| 2026-05-05 08:11 | 48.91904 | 15.36632 | 32499 ft | 431 kts | 154° |
| 2026-05-05 08:12 | 48.89310 | 15.38931 | 32828 ft | 433 kts | 147° |
| 2026-05-05 08:12 | 48.86961 | 15.41808 | 33163 ft | 435 kts | 140° |
| 2026-05-05 08:12 | 48.84703 | 15.44856 | 33493 ft | 435 kts | 140° |
| 2026-05-05 08:12 | 48.82441 | 15.47901 | 33810 ft | 434 kts | 140° |
| 2026-05-05 08:13 | 48.80183 | 15.50930 | 34131 ft | 433 kts | 140° |
| 2026-05-05 08:13 | 48.77930 | 15.53949 | 34418 ft | 432 kts | 141° |
| 2026-05-05 08:13 | 48.75680 | 15.56959 | 34680 ft | 431 kts | 141° |
| 2026-05-05 08:13 | 48.73428 | 15.59964 | 34846 ft | 432 kts | 141° |
| 2026-05-05 08:14 | 48.68853 | 15.66035 | 34877 ft | 443 kts | 141° |
| 2026-05-05 08:14 | 48.64157 | 15.72270 | 34881 ft | 454 kts | 141° |
| 2026-05-05 08:15 | 48.59385 | 15.78596 | 34879 ft | 457 kts | 141° |
| 2026-05-05 08:15 | 48.54604 | 15.84913 | 34884 ft | 456 kts | 141° |
| 2026-05-05 08:16 | 48.49826 | 15.91209 | 34879 ft | 456 kts | 141° |
| 2026-05-05 08:16 | 48.45038 | 15.97495 | 34882 ft | 456 kts | 141° |
| 2026-05-05 08:17 | 48.40289 | 16.03740 | 34885 ft | 457 kts | 140° |
| 2026-05-05 08:17 | 48.35575 | 16.10161 | 34877 ft | 457 kts | 139° |
| 2026-05-05 08:18 | 48.30901 | 16.16628 | 34883 ft | 457 kts | 140° |
| 2026-05-05 08:18 | 48.26209 | 16.23063 | 34892 ft | 456 kts | 140° |
| 2026-05-05 08:19 | 48.21505 | 16.29455 | 34897 ft | 456 kts | 140° |
| 2026-05-05 08:19 | 48.16794 | 16.35822 | 34900 ft | 456 kts | 140° |
| 2026-05-05 08:20 | 48.12087 | 16.42192 | 34888 ft | 456 kts | 140° |
| 2026-05-05 08:20 | 48.07372 | 16.48544 | 34889 ft | 456 kts | 140° |
| 2026-05-05 08:21 | 48.02646 | 16.54883 | 34892 ft | 457 kts | 140° |
| 2026-05-05 08:21 | 47.97916 | 16.61215 | 34894 ft | 457 kts | 140° |
| 2026-05-05 08:22 | 47.93185 | 16.67552 | 34896 ft | 457 kts | 140° |
| 2026-05-05 08:22 | 47.88455 | 16.73874 | 34896 ft | 457 kts | 141° |
| 2026-05-05 08:23 | 47.83718 | 16.80185 | 34908 ft | 457 kts | 141° |
| 2026-05-05 08:23 | 47.78974 | 16.86478 | 34905 ft | 457 kts | 140° |
| 2026-05-05 08:24 | 47.74224 | 16.92766 | 34908 ft | 457 kts | 141° |
| 2026-05-05 08:24 | 47.69469 | 16.99035 | 34908 ft | 457 kts | 141° |
| 2026-05-05 08:25 | 47.64624 | 17.05133 | 34906 ft | 456 kts | 144° |
| 2026-05-05 08:25 | 47.59581 | 17.10828 | 34916 ft | 455 kts | 146° |
| 2026-05-05 08:26 | 47.54500 | 17.16429 | 34932 ft | 455 kts | 145° |
| 2026-05-05 08:26 | 47.49450 | 17.22100 | 34944 ft | 456 kts | 144° |
| 2026-05-05 08:27 | 47.44428 | 17.27816 | 34948 ft | 456 kts | 144° |
| 2026-05-05 08:27 | 47.39403 | 17.33519 | 34949 ft | 456 kts | 145° |
| 2026-05-05 08:28 | 47.34364 | 17.39197 | 34948 ft | 456 kts | 146° |
| 2026-05-05 08:28 | 47.29352 | 17.44821 | 34944 ft | 456 kts | 144° |
| 2026-05-05 08:29 | 47.24300 | 17.50486 | 34946 ft | 457 kts | 145° |
| 2026-05-05 08:30 | 47.16716 | 17.58967 | 34938 ft | 457 kts | 145° |
| 2026-05-05 08:30 | 47.11647 | 17.64616 | 34939 ft | 458 kts | 145° |
| 2026-05-05 08:31 | 47.06570 | 17.70264 | 34965 ft | 458 kts | 145° |
| 2026-05-05 08:31 | 47.01483 | 17.75919 | 34965 ft | 459 kts | 145° |
| 2026-05-05 08:32 | 46.96389 | 17.81554 | 34987 ft | 459 kts | 145° |
| 2026-05-05 08:32 | 46.91298 | 17.87177 | 34984 ft | 459 kts | 144° |
| 2026-05-05 08:33 | 46.86200 | 17.92792 | 34998 ft | 459 kts | 145° |
| 2026-05-05 08:33 | 46.81100 | 17.98394 | 34997 ft | 459 kts | 145° |
| 2026-05-05 08:34 | 46.75995 | 18.03985 | 35001 ft | 459 kts | 145° |
| 2026-05-05 08:34 | 46.70880 | 18.09563 | 35002 ft | 459 kts | 145° |
| 2026-05-05 08:35 | 46.65765 | 18.15138 | 35002 ft | 459 kts | 145° |
| 2026-05-05 08:35 | 46.60649 | 18.20707 | 35003 ft | 460 kts | 145° |
| 2026-05-05 08:36 | 46.55527 | 18.26273 | 35008 ft | 460 kts | 145° |
| 2026-05-05 08:36 | 46.50400 | 18.31824 | 35003 ft | 460 kts | 145° |
| 2026-05-05 08:37 | 46.45304 | 18.37330 | 35012 ft | 460 kts | 145° |
| 2026-05-05 08:37 | 46.40162 | 18.42863 | 35007 ft | 460 kts | 145° |
| 2026-05-05 08:38 | 46.35012 | 18.48393 | 35014 ft | 461 kts | 145° |
| 2026-05-05 08:38 | 46.29858 | 18.53919 | 35011 ft | 461 kts | 145° |
| 2026-05-05 08:39 | 46.24699 | 18.59438 | 35017 ft | 461 kts | 145° |
| 2026-05-05 08:39 | 46.19538 | 18.64951 | 35015 ft | 461 kts | 145° |
| 2026-05-05 08:40 | 46.14367 | 18.70452 | 35019 ft | 462 kts | 145° |
| 2026-05-05 08:40 | 46.09191 | 18.75947 | 35018 ft | 462 kts | 145° |
| 2026-05-05 08:41 | 46.04011 | 18.81435 | 35023 ft | 463 kts | 145° |
| 2026-05-05 08:41 | 45.98820 | 18.86917 | 35018 ft | 463 kts | 145° |
| 2026-05-05 08:42 | 45.93646 | 18.92424 | 35017 ft | 464 kts | 141° |
| 2026-05-05 08:42 | 45.88995 | 18.98863 | 35013 ft | 465 kts | 136° |
| 2026-05-05 08:43 | 45.84419 | 19.05438 | 35018 ft | 466 kts | 136° |
| 2026-05-05 08:43 | 45.79830 | 19.12002 | 35020 ft | 466 kts | 136° |
| 2026-05-05 08:44 | 45.75237 | 19.18560 | 35028 ft | 466 kts | 136° |
| 2026-05-05 08:44 | 45.70626 | 19.25103 | 35014 ft | 467 kts | 136° |
| 2026-05-05 08:45 | 45.66009 | 19.31639 | 35019 ft | 467 kts | 136° |
| 2026-05-05 08:45 | 45.61390 | 19.38185 | 35017 ft | 468 kts | 136° |
| 2026-05-05 08:46 | 45.56767 | 19.44724 | 35018 ft | 468 kts | 136° |
| 2026-05-05 08:46 | 45.52133 | 19.51253 | 35023 ft | 468 kts | 136° |
| 2026-05-05 08:47 | 45.47495 | 19.57762 | 35018 ft | 468 kts | 136° |
| 2026-05-05 08:47 | 45.42848 | 19.64268 | 35016 ft | 469 kts | 136° |
| 2026-05-05 08:48 | 45.38203 | 19.70780 | 35019 ft | 469 kts | 136° |
| 2026-05-05 08:48 | 45.33544 | 19.77281 | 35031 ft | 469 kts | 136° |
| 2026-05-05 08:49 | 45.28878 | 19.83767 | 35026 ft | 469 kts | 136° |
| 2026-05-05 08:49 | 45.24209 | 19.90251 | 35030 ft | 470 kts | 136° |
| 2026-05-05 08:50 | 45.19571 | 19.96686 | 35027 ft | 470 kts | 136° |
| 2026-05-05 08:50 | 45.14886 | 20.03156 | 35023 ft | 471 kts | 136° |
| 2026-05-05 08:51 | 45.10192 | 20.09625 | 35025 ft | 471 kts | 136° |
| 2026-05-05 08:51 | 45.05487 | 20.16093 | 35026 ft | 472 kts | 136° |
| 2026-05-05 08:52 | 45.00776 | 20.22549 | 35031 ft | 472 kts | 136° |
| 2026-05-05 08:52 | 44.96062 | 20.29002 | 35056 ft | 472 kts | 136° |
| 2026-05-05 08:53 | 44.91345 | 20.35452 | 35061 ft | 472 kts | 136° |
| 2026-05-05 08:53 | 44.86617 | 20.41871 | 35059 ft | 472 kts | 136° |
| 2026-05-05 08:54 | 44.81886 | 20.48289 | 35059 ft | 472 kts | 136° |
| 2026-05-05 08:54 | 44.77158 | 20.54704 | 35064 ft | 472 kts | 136° |
| 2026-05-05 08:55 | 44.72426 | 20.61106 | 35066 ft | 472 kts | 136° |
| 2026-05-05 08:55 | 44.68487 | 20.66424 | 35061 ft | 472 kts | 136° |
| 2026-05-05 08:56 | 44.63740 | 20.72814 | 35060 ft | 473 kts | 136° |
| 2026-05-05 08:56 | 44.58987 | 20.79197 | 35065 ft | 473 kts | 136° |
| 2026-05-05 08:57 | 44.54217 | 20.85570 | 35063 ft | 474 kts | 136° |
| 2026-05-05 08:57 | 44.49439 | 20.91949 | 35066 ft | 475 kts | 136° |
| 2026-05-05 08:58 | 44.44653 | 20.98327 | 35071 ft | 475 kts | 136° |
| 2026-05-05 08:58 | 44.39863 | 21.04703 | 35091 ft | 475 kts | 135° |
| 2026-05-05 08:59 | 44.35064 | 21.11074 | 35070 ft | 476 kts | 136° |
| 2026-05-05 08:59 | 44.30252 | 21.17443 | 35065 ft | 477 kts | 136° |
| 2026-05-05 09:00 | 44.25427 | 21.23818 | 35067 ft | 478 kts | 136° |
| 2026-05-05 09:00 | 44.20593 | 21.30183 | 35098 ft | 478 kts | 136° |
| 2026-05-05 09:01 | 44.15727 | 21.36516 | 35078 ft | 479 kts | 137° |
| 2026-05-05 09:01 | 44.10744 | 21.42702 | 35065 ft | 480 kts | 138° |
| 2026-05-05 09:02 | 44.05722 | 21.48829 | 35079 ft | 480 kts | 138° |
| 2026-05-05 09:02 | 44.00750 | 21.54944 | 35094 ft | 481 kts | 137° |
| 2026-05-05 09:03 | 43.95747 | 21.61129 | 35078 ft | 482 kts | 137° |
| 2026-05-05 09:03 | 43.90730 | 21.67310 | 35075 ft | 483 kts | 137° |
| 2026-05-05 09:04 | 43.85702 | 21.73483 | 35071 ft | 483 kts | 138° |
| 2026-05-05 09:04 | 43.80663 | 21.79652 | 35092 ft | 484 kts | 137° |
| 2026-05-05 09:05 | 43.75619 | 21.85828 | 35086 ft | 484 kts | 137° |
| 2026-05-05 09:05 | 43.70561 | 21.91991 | 35081 ft | 485 kts | 137° |
| 2026-05-05 09:06 | 43.65496 | 21.98150 | 35086 ft | 485 kts | 137° |
| 2026-05-05 09:06 | 43.60422 | 22.04303 | 35090 ft | 486 kts | 137° |
| 2026-05-05 09:07 | 43.55344 | 22.10455 | 35084 ft | 486 kts | 138° |
| 2026-05-05 09:07 | 43.50257 | 22.16597 | 35090 ft | 486 kts | 138° |
| 2026-05-05 09:08 | 43.45167 | 22.22732 | 35097 ft | 487 kts | 138° |
| 2026-05-05 09:08 | 43.40066 | 22.28859 | 35108 ft | 487 kts | 138° |
| 2026-05-05 09:09 | 43.34965 | 22.34978 | 35104 ft | 487 kts | 138° |
| 2026-05-05 09:09 | 43.29861 | 22.41090 | 35093 ft | 487 kts | 138° |
| 2026-05-05 09:10 | 43.24743 | 22.47191 | 35098 ft | 488 kts | 138° |
| 2026-05-05 09:10 | 43.19620 | 22.53296 | 35112 ft | 488 kts | 138° |
| 2026-05-05 09:11 | 43.14498 | 22.59386 | 35112 ft | 488 kts | 138° |
| 2026-05-05 09:11 | 43.09372 | 22.65471 | 35110 ft | 488 kts | 138° |
| 2026-05-05 09:12 | 43.04240 | 22.71540 | 35129 ft | 488 kts | 138° |
| 2026-05-05 09:12 | 42.99093 | 22.77601 | 35124 ft | 488 kts | 138° |
| 2026-05-05 09:13 | 42.93964 | 22.83682 | 35118 ft | 488 kts | 137° |
| 2026-05-05 09:13 | 42.88907 | 22.89868 | 35122 ft | 488 kts | 136° |
| 2026-05-05 09:14 | 42.83861 | 22.96067 | 35135 ft | 488 kts | 137° |
| 2026-05-05 09:14 | 42.78784 | 23.02228 | 35117 ft | 489 kts | 137° |
| 2026-05-05 09:15 | 42.73691 | 23.08373 | 35118 ft | 490 kts | 137° |
| 2026-05-05 09:15 | 42.68626 | 23.14466 | 35115 ft | 490 kts | 137° |
| 2026-05-05 09:16 | 42.63520 | 23.20608 | 35128 ft | 490 kts | 137° |
| 2026-05-05 09:16 | 42.58412 | 23.26735 | 35125 ft | 490 kts | 137° |
| 2026-05-05 09:17 | 42.53383 | 23.32970 | 35117 ft | 489 kts | 134° |
| 2026-05-05 09:17 | 42.48597 | 23.39524 | 35118 ft | 489 kts | 132° |
| 2026-05-05 09:18 | 42.43862 | 23.46153 | 35136 ft | 490 kts | 133° |
| 2026-05-05 09:18 | 42.39059 | 23.52701 | 35132 ft | 490 kts | 133° |
| 2026-05-05 09:19 | 42.34208 | 23.59185 | 35130 ft | 491 kts | 134° |
| 2026-05-05 09:19 | 42.29346 | 23.65657 | 35123 ft | 491 kts | 134° |
| 2026-05-05 09:20 | 42.24323 | 23.71916 | 35127 ft | 492 kts | 137° |
| 2026-05-05 09:20 | 42.19191 | 23.78011 | 35131 ft | 492 kts | 137° |
| 2026-05-05 09:21 | 42.14077 | 23.84126 | 35122 ft | 491 kts | 136° |
| 2026-05-05 09:21 | 42.08999 | 23.90278 | 35112 ft | 491 kts | 136° |
| 2026-05-05 09:22 | 42.03932 | 23.96437 | 35105 ft | 491 kts | 136° |
| 2026-05-05 09:22 | 41.98855 | 24.02577 | 35104 ft | 491 kts | 136° |
| 2026-05-05 09:23 | 41.93764 | 24.08697 | 35111 ft | 491 kts | 136° |
| 2026-05-05 09:23 | 41.88670 | 24.14810 | 35100 ft | 491 kts | 136° |
| 2026-05-05 09:24 | 41.83575 | 24.20915 | 35095 ft | 491 kts | 136° |
| 2026-05-05 09:24 | 41.78512 | 24.26968 | 35088 ft | 491 kts | 136° |
| 2026-05-05 09:25 | 41.73408 | 24.33056 | 35085 ft | 491 kts | 137° |
| 2026-05-05 09:25 | 41.68300 | 24.39143 | 35089 ft | 491 kts | 137° |
| 2026-05-05 09:26 | 41.63189 | 24.45206 | 35094 ft | 491 kts | 137° |
| 2026-05-05 09:26 | 41.58082 | 24.51244 | 35093 ft | 490 kts | 137° |
| 2026-05-05 09:27 | 41.52981 | 24.57268 | 35086 ft | 489 kts | 137° |
| 2026-05-05 09:27 | 41.47881 | 24.63283 | 35080 ft | 489 kts | 137° |
| 2026-05-05 09:28 | 41.42776 | 24.69281 | 35088 ft | 489 kts | 137° |
| 2026-05-05 09:28 | 41.37683 | 24.75287 | 35093 ft | 489 kts | 137° |
| 2026-05-05 09:29 | 41.32611 | 24.81309 | 35089 ft | 489 kts | 137° |
| 2026-05-05 09:29 | 41.27530 | 24.87325 | 35096 ft | 489 kts | 137° |
| 2026-05-05 09:30 | 41.22446 | 24.93321 | 35086 ft | 489 kts | 137° |
| 2026-05-05 09:30 | 41.17356 | 24.99308 | 35082 ft | 489 kts | 137° |
| 2026-05-05 09:31 | 41.12262 | 25.05285 | 35098 ft | 489 kts | 137° |
| 2026-05-05 09:31 | 41.07165 | 25.11253 | 35104 ft | 489 kts | 137° |
| 2026-05-05 09:32 | 41.02062 | 25.17214 | 35109 ft | 489 kts | 138° |
| 2026-05-05 09:32 | 40.96959 | 25.23159 | 35105 ft | 489 kts | 137° |
| 2026-05-05 09:33 | 40.91844 | 25.29110 | 35101 ft | 490 kts | 138° |
| 2026-05-05 09:33 | 40.87092 | 25.35543 | 35119 ft | 489 kts | 131° |
| 2026-05-05 09:34 | 40.82491 | 25.42158 | 35118 ft | 489 kts | 131° |
| 2026-05-05 09:34 | 40.77876 | 25.48745 | 35114 ft | 488 kts | 131° |
| 2026-05-05 09:35 | 40.73263 | 25.55321 | 35114 ft | 488 kts | 131° |
| 2026-05-05 09:35 | 40.66341 | 25.65182 | 35128 ft | 488 kts | 131° |
| 2026-05-05 09:36 | 40.61724 | 25.71749 | 35119 ft | 489 kts | 131° |
| 2026-05-05 09:36 | 40.57093 | 25.78297 | 35115 ft | 489 kts | 132° |
| 2026-05-05 09:37 | 40.52457 | 25.84844 | 35118 ft | 489 kts | 131° |
| 2026-05-05 09:37 | 40.47877 | 25.91372 | 35121 ft | 489 kts | 130° |
| 2026-05-05 09:38 | 40.43391 | 25.98090 | 35127 ft | 489 kts | 129° |
| 2026-05-05 09:38 | 40.38948 | 26.04853 | 35126 ft | 489 kts | 130° |
| 2026-05-05 09:39 | 40.34466 | 26.11571 | 35121 ft | 490 kts | 130° |
| 2026-05-05 09:39 | 40.29952 | 26.18259 | 35121 ft | 490 kts | 130° |
| 2026-05-05 09:40 | 40.25434 | 26.24942 | 35119 ft | 490 kts | 130° |
| 2026-05-05 09:40 | 40.20919 | 26.31622 | 35110 ft | 490 kts | 130° |
| 2026-05-05 09:41 | 40.16401 | 26.38292 | 35107 ft | 490 kts | 130° |
| 2026-05-05 09:41 | 40.11847 | 26.44905 | 35106 ft | 490 kts | 133° |
| 2026-05-05 09:42 | 40.07858 | 26.50154 | 35104 ft | 490 kts | 135° |
| 2026-05-05 09:42 | 40.02890 | 26.56331 | 35107 ft | 490 kts | 136° |
| 2026-05-05 09:43 | 39.97977 | 26.62481 | 35113 ft | 489 kts | 135° |
| 2026-05-05 09:43 | 39.93151 | 26.68647 | 35108 ft | 489 kts | 134° |
| 2026-05-05 09:44 | 39.88305 | 26.74869 | 35108 ft | 489 kts | 135° |
| 2026-05-05 09:44 | 39.83447 | 26.81073 | 35113 ft | 489 kts | 135° |
| 2026-05-05 09:45 | 39.78578 | 26.87257 | 35117 ft | 489 kts | 135° |
| 2026-05-05 09:45 | 39.73690 | 26.93405 | 35105 ft | 489 kts | 136° |
| 2026-05-05 09:46 | 39.68745 | 26.99463 | 35104 ft | 489 kts | 136° |
| 2026-05-05 09:46 | 39.63779 | 27.05495 | 35109 ft | 489 kts | 136° |
| 2026-05-05 09:47 | 39.58820 | 27.11537 | 35100 ft | 489 kts | 136° |
| 2026-05-05 09:47 | 39.53868 | 27.17583 | 35106 ft | 489 kts | 137° |
| 2026-05-05 09:48 | 39.49038 | 27.23769 | 35112 ft | 488 kts | 129° |
| 2026-05-05 09:48 | 39.44728 | 27.30549 | 35111 ft | 488 kts | 129° |
| 2026-05-05 09:49 | 39.40410 | 27.37306 | 35115 ft | 487 kts | 129° |
| 2026-05-05 09:49 | 39.36084 | 27.44050 | 35109 ft | 487 kts | 129° |
| 2026-05-05 09:50 | 39.31762 | 27.50782 | 35122 ft | 487 kts | 129° |
| 2026-05-05 09:50 | 39.27447 | 27.57505 | 35110 ft | 486 kts | 129° |
| 2026-05-05 09:51 | 39.23130 | 27.64209 | 35103 ft | 485 kts | 129° |
| 2026-05-05 09:51 | 39.18807 | 27.70896 | 35099 ft | 485 kts | 129° |
| 2026-05-05 09:52 | 39.14511 | 27.77519 | 35091 ft | 485 kts | 129° |
| 2026-05-05 09:52 | 39.10152 | 27.84240 | 35067 ft | 486 kts | 129° |
| 2026-05-05 09:53 | 39.05837 | 27.90895 | 35063 ft | 488 kts | 129° |
| 2026-05-05 09:53 | 39.01474 | 27.97607 | 35066 ft | 489 kts | 130° |
| 2026-05-05 09:54 | 38.97093 | 28.04310 | 35067 ft | 490 kts | 130° |
| 2026-05-05 09:54 | 38.92701 | 28.11016 | 35086 ft | 491 kts | 130° |
| 2026-05-05 09:55 | 38.88309 | 28.17724 | 35085 ft | 491 kts | 130° |
| 2026-05-05 09:55 | 38.83911 | 28.24425 | 35085 ft | 491 kts | 130° |
| 2026-05-05 09:56 | 38.79504 | 28.31113 | 35074 ft | 491 kts | 130° |
| 2026-05-05 09:56 | 38.75093 | 28.37809 | 35099 ft | 492 kts | 130° |
| 2026-05-05 09:57 | 38.70678 | 28.44499 | 35092 ft | 492 kts | 130° |
| 2026-05-05 09:57 | 38.66253 | 28.51178 | 35091 ft | 492 kts | 130° |
| 2026-05-05 09:58 | 38.61824 | 28.57849 | 35088 ft | 492 kts | 130° |
| 2026-05-05 09:58 | 38.57122 | 28.64180 | 35086 ft | 490 kts | 142° |
| 2026-05-05 09:59 | 38.51622 | 28.69214 | 35092 ft | 490 kts | 146° |
| 2026-05-05 09:59 | 38.46032 | 28.74201 | 35076 ft | 491 kts | 146° |
| 2026-05-05 10:00 | 38.40428 | 28.79198 | 35071 ft | 492 kts | 146° |
| 2026-05-05 10:00 | 38.34819 | 28.84207 | 35071 ft | 493 kts | 146° |
| 2026-05-05 10:01 | 38.29203 | 28.89214 | 35075 ft | 493 kts | 146° |
| 2026-05-05 10:01 | 38.23580 | 28.94201 | 35076 ft | 493 kts | 146° |
| 2026-05-05 10:02 | 38.17947 | 28.99190 | 35072 ft | 494 kts | 146° |
| 2026-05-05 10:02 | 38.12300 | 29.04190 | 35062 ft | 495 kts | 146° |
| 2026-05-05 10:03 | 38.06639 | 29.09193 | 35062 ft | 496 kts | 146° |
| 2026-05-05 10:03 | 38.00972 | 29.14191 | 35064 ft | 496 kts | 146° |
| 2026-05-05 10:04 | 37.95301 | 29.19191 | 35064 ft | 497 kts | 146° |
| 2026-05-05 10:04 | 37.89623 | 29.24174 | 35057 ft | 497 kts | 146° |
| 2026-05-05 10:05 | 37.83932 | 29.29154 | 35056 ft | 498 kts | 146° |
| 2026-05-05 10:05 | 37.78233 | 29.34145 | 35054 ft | 498 kts | 146° |
| 2026-05-05 10:06 | 37.72529 | 29.39137 | 35051 ft | 499 kts | 146° |
| 2026-05-05 10:06 | 37.66822 | 29.44118 | 35048 ft | 499 kts | 146° |
| 2026-05-05 10:07 | 37.61106 | 29.49095 | 35048 ft | 499 kts | 146° |
| 2026-05-05 10:07 | 37.55387 | 29.54065 | 35058 ft | 499 kts | 146° |
| 2026-05-05 10:08 | 37.49701 | 29.59005 | 35048 ft | 500 kts | 146° |
| 2026-05-05 10:08 | 37.43966 | 29.63964 | 35044 ft | 500 kts | 146° |
| 2026-05-05 10:09 | 37.38226 | 29.68912 | 35026 ft | 500 kts | 146° |
| 2026-05-05 10:09 | 37.32487 | 29.73867 | 35032 ft | 500 kts | 146° |
| 2026-05-05 10:10 | 37.26751 | 29.78812 | 35024 ft | 500 kts | 146° |
| 2026-05-05 10:10 | 37.21010 | 29.83753 | 35036 ft | 501 kts | 146° |
| 2026-05-05 10:11 | 37.15263 | 29.88694 | 35020 ft | 501 kts | 146° |
| 2026-05-05 10:11 | 37.09500 | 29.93617 | 35008 ft | 502 kts | 147° |
| 2026-05-05 10:12 | 37.03735 | 29.98552 | 34995 ft | 502 kts | 146° |
| 2026-05-05 10:12 | 36.97970 | 30.03490 | 34995 ft | 502 kts | 146° |
| 2026-05-05 10:13 | 36.92202 | 30.08428 | 34986 ft | 503 kts | 146° |
| 2026-05-05 10:13 | 36.86422 | 30.13355 | 34992 ft | 503 kts | 147° |
| 2026-05-05 10:14 | 36.80636 | 30.18279 | 34974 ft | 503 kts | 147° |
| 2026-05-05 10:14 | 36.74844 | 30.23192 | 34977 ft | 503 kts | 147° |
| 2026-05-05 10:15 | 36.69039 | 30.28088 | 34977 ft | 503 kts | 147° |
| 2026-05-05 10:15 | 36.63240 | 30.32981 | 34978 ft | 504 kts | 147° |
| 2026-05-05 10:16 | 36.57438 | 30.37871 | 34987 ft | 504 kts | 147° |
| 2026-05-05 10:16 | 36.51629 | 30.42756 | 34992 ft | 504 kts | 147° |
| 2026-05-05 10:17 | 36.45811 | 30.47639 | 34980 ft | 505 kts | 147° |
| 2026-05-05 10:17 | 36.39981 | 30.52521 | 34985 ft | 506 kts | 147° |
| 2026-05-05 10:18 | 36.34148 | 30.57411 | 34985 ft | 506 kts | 147° |
| 2026-05-05 10:18 | 36.28310 | 30.62294 | 34966 ft | 506 kts | 148° |
| 2026-05-05 10:19 | 36.22475 | 30.67162 | 34986 ft | 506 kts | 148° |
| 2026-05-05 10:19 | 36.16638 | 30.72016 | 34997 ft | 505 kts | 148° |
| 2026-05-05 10:20 | 36.10796 | 30.76852 | 35000 ft | 505 kts | 148° |
| 2026-05-05 10:20 | 36.04960 | 30.81688 | 35003 ft | 505 kts | 148° |
| 2026-05-05 10:21 | 35.99279 | 30.86803 | 34999 ft | 506 kts | 143° |
| 2026-05-05 10:21 | 35.93851 | 30.92338 | 35002 ft | 506 kts | 141° |
| 2026-05-05 10:22 | 35.88443 | 30.97902 | 35022 ft | 507 kts | 142° |
| 2026-05-05 10:22 | 35.82947 | 31.03355 | 34996 ft | 508 kts | 143° |
| 2026-05-05 10:23 | 35.77398 | 31.08750 | 34993 ft | 508 kts | 143° |
| 2026-05-05 10:23 | 35.71836 | 31.14143 | 34989 ft | 509 kts | 143° |
| 2026-05-05 10:24 | 35.66291 | 31.19563 | 34980 ft | 509 kts | 143° |
| 2026-05-05 10:24 | 35.60750 | 31.24989 | 35007 ft | 509 kts | 143° |
| 2026-05-05 10:25 | 35.55200 | 31.30409 | 34992 ft | 510 kts | 143° |
| 2026-05-05 10:25 | 35.49636 | 31.35822 | 34991 ft | 511 kts | 143° |
| 2026-05-05 10:26 | 35.44063 | 31.41228 | 34994 ft | 511 kts | 143° |
| 2026-05-05 10:26 | 35.38485 | 31.46629 | 34979 ft | 511 kts | 144° |
| 2026-05-05 10:27 | 35.33854 | 31.51117 | 34995 ft | 510 kts | 144° |
| 2026-05-05 10:27 | 35.28281 | 31.56511 | 35004 ft | 511 kts | 144° |
| 2026-05-05 10:28 | 35.22701 | 31.61897 | 35004 ft | 511 kts | 144° |
| 2026-05-05 10:28 | 35.16204 | 31.68139 | 35000 ft | 511 kts | 144° |
| 2026-05-05 10:29 | 35.11515 | 31.72635 | 35002 ft | 511 kts | 144° |
| 2026-05-05 10:29 | 35.05925 | 31.77994 | 34994 ft | 511 kts | 144° |
| 2026-05-05 10:30 | 35.00335 | 31.83349 | 35007 ft | 511 kts | 144° |
| 2026-05-05 10:30 | 34.99389 | 31.84255 | 35006 ft | 511 kts | 144° |
| 2026-05-05 10:32 | 34.77251 | 32.05354 | 34989 ft | 511 kts | 145° |
| 2026-05-05 10:32 | 34.71652 | 32.10670 | 35001 ft | 511 kts | 145° |
| 2026-05-05 10:33 | 34.66045 | 32.15982 | 34997 ft | 511 kts | 145° |
| 2026-05-05 10:33 | 34.60439 | 32.21286 | 34994 ft | 511 kts | 145° |
| 2026-05-05 10:34 | 34.54831 | 32.26588 | 34995 ft | 511 kts | 145° |
| 2026-05-05 10:34 | 34.49215 | 32.31874 | 34982 ft | 511 kts | 146° |
| 2026-05-05 10:35 | 34.43603 | 32.37148 | 35000 ft | 511 kts | 146° |
| 2026-05-05 10:35 | 34.37984 | 32.42415 | 35006 ft | 511 kts | 146° |
| 2026-05-05 10:36 | 34.32367 | 32.47682 | 35005 ft | 511 kts | 146° |
| 2026-05-05 10:36 | 34.26755 | 32.52947 | 35004 ft | 511 kts | 146° |
| 2026-05-05 10:37 | 34.21132 | 32.58198 | 35009 ft | 511 kts | 146° |
| 2026-05-05 10:37 | 34.15512 | 32.63432 | 35002 ft | 509 kts | 147° |
| 2026-05-05 10:38 | 34.09911 | 32.68642 | 35027 ft | 508 kts | 147° |
| 2026-05-05 10:38 | 34.05020 | 32.72562 | 35028 ft | 502 kts | 153° |
| 2026-05-05 10:39 | 33.99079 | 32.76986 | 35025 ft | 502 kts | 153° |
| 2026-05-05 10:39 | 33.93178 | 32.81364 | 35024 ft | 501 kts | 153° |
| 2026-05-05 10:40 | 33.87249 | 32.85778 | 35005 ft | 500 kts | 153° |
| 2026-05-05 10:40 | 33.81337 | 32.90177 | 35025 ft | 499 kts | 154° |
| 2026-05-05 10:41 | 33.75435 | 32.94559 | 35032 ft | 498 kts | 154° |
| 2026-05-05 10:41 | 33.69534 | 32.98924 | 35032 ft | 498 kts | 154° |
| 2026-05-05 10:42 | 33.60692 | 33.05446 | 35029 ft | 497 kts | 154° |
| 2026-05-05 10:43 | 33.54801 | 33.09787 | 34616 ft | 496 kts | 154° |
| 2026-05-05 10:43 | 33.51886 | 33.11933 | 34357 ft | 488 kts | 154° |
| 2026-05-05 10:43 | 33.49004 | 33.14054 | 34125 ft | 485 kts | 154° |
| 2026-05-05 10:43 | 33.46129 | 33.16168 | 33870 ft | 485 kts | 154° |
| 2026-05-05 10:44 | 33.43255 | 33.18277 | 33599 ft | 485 kts | 154° |
| 2026-05-05 10:44 | 33.40376 | 33.20387 | 33330 ft | 485 kts | 154° |
| 2026-05-05 10:44 | 33.37493 | 33.22501 | 33060 ft | 486 kts | 154° |
| 2026-05-05 10:44 | 33.34607 | 33.24618 | 32799 ft | 487 kts | 154° |
| 2026-05-05 10:45 | 33.31717 | 33.26735 | 32213 ft | 488 kts | 153° |
| 2026-05-05 10:45 | 33.28790 | 33.28869 | 31097 ft | 496 kts | 153° |
| 2026-05-05 10:45 | 33.25838 | 33.31024 | 30136 ft | 498 kts | 153° |
| 2026-05-05 10:45 | 33.22866 | 33.33192 | 29168 ft | 499 kts | 153° |
| 2026-05-05 10:46 | 33.19943 | 33.35332 | 28683 ft | 489 kts | 152° |
| 2026-05-05 10:46 | 33.17051 | 33.37448 | 27988 ft | 486 kts | 152° |
| 2026-05-05 10:46 | 33.14183 | 33.39541 | 27315 ft | 481 kts | 152° |
| 2026-05-05 10:46 | 33.11336 | 33.41617 | 26649 ft | 478 kts | 152° |
| 2026-05-05 10:47 | 33.08505 | 33.43679 | 25997 ft | 475 kts | 152° |
| 2026-05-05 10:47 | 33.05691 | 33.45721 | 25344 ft | 472 kts | 152° |
| 2026-05-05 10:47 | 33.02891 | 33.47747 | 24685 ft | 469 kts | 152° |
| 2026-05-05 10:47 | 33.00107 | 33.49758 | 24047 ft | 467 kts | 152° |
| 2026-05-05 10:48 | 32.97340 | 33.51762 | 23392 ft | 465 kts | 152° |
| 2026-05-05 10:48 | 32.94591 | 33.53752 | 22743 ft | 460 kts | 152° |
| 2026-05-05 10:48 | 32.91869 | 33.55722 | 22164 ft | 455 kts | 152° |
| 2026-05-05 10:48 | 32.89176 | 33.57671 | 21589 ft | 451 kts | 152° |
| 2026-05-05 10:49 | 32.86505 | 33.59600 | 21032 ft | 448 kts | 152° |
| 2026-05-05 10:49 | 32.83860 | 33.61532 | 20508 ft | 445 kts | 149° |
| 2026-05-05 10:49 | 32.81438 | 33.63829 | 19989 ft | 447 kts | 139° |
| 2026-05-05 10:49 | 32.79273 | 33.66479 | 19455 ft | 446 kts | 136° |
| 2026-05-05 10:50 | 32.77131 | 33.69135 | 18923 ft | 445 kts | 136° |
| 2026-05-05 10:50 | 32.74989 | 33.71783 | 18355 ft | 444 kts | 136° |
| 2026-05-05 10:50 | 32.72852 | 33.74419 | 17768 ft | 442 kts | 136° |
| 2026-05-05 10:50 | 32.70725 | 33.77039 | 17194 ft | 439 kts | 136° |
| 2026-05-05 10:51 | 32.68615 | 33.79638 | 16619 ft | 436 kts | 136° |
| 2026-05-05 10:51 | 32.66540 | 33.82188 | 16038 ft | 434 kts | 136° |
| 2026-05-05 10:51 | 32.64424 | 33.84786 | 15498 ft | 430 kts | 136° |
| 2026-05-05 10:51 | 32.62381 | 33.87289 | 14905 ft | 427 kts | 137° |
| 2026-05-05 10:52 | 32.60304 | 33.89831 | 14359 ft | 423 kts | 137° |
| 2026-05-05 10:52 | 32.58292 | 33.92298 | 13899 ft | 417 kts | 136° |
| 2026-05-05 10:52 | 32.56289 | 33.94757 | 13295 ft | 413 kts | 137° |
| 2026-05-05 10:52 | 32.54286 | 33.97229 | 12754 ft | 406 kts | 136° |
| 2026-05-05 10:53 | 32.52384 | 33.99604 | 12247 ft | 400 kts | 136° |
| 2026-05-05 10:53 | 32.50493 | 34.01980 | 11860 ft | 390 kts | 136° |
| 2026-05-05 10:53 | 32.48662 | 34.04283 | 11610 ft | 378 kts | 136° |
| 2026-05-05 10:53 | 32.46881 | 34.06515 | 11359 ft | 368 kts | 136° |
| 2026-05-05 10:54 | 32.45149 | 34.08682 | 11118 ft | 357 kts | 136° |
| 2026-05-05 10:54 | 32.43627 | 34.10967 | 10875 ft | 351 kts | 124° |
| 2026-05-05 10:54 | 32.42574 | 34.13544 | 10633 ft | 346 kts | 110° |
| 2026-05-05 10:54 | 32.41985 | 34.16274 | 10393 ft | 339 kts | 102° |
| 2026-05-05 10:55 | 32.41502 | 34.18978 | 10155 ft | 333 kts | 103° |
| 2026-05-05 10:55 | 32.41024 | 34.21627 | 9963 ft | 325 kts | 103° |
| 2026-05-05 10:55 | 32.40558 | 34.24201 | 9779 ft | 316 kts | 103° |
| 2026-05-05 10:55 | 32.40099 | 34.26727 | 9496 ft | 312 kts | 103° |
| 2026-05-05 10:56 | 32.39648 | 34.29227 | 9252 ft | 310 kts | 103° |
| 2026-05-05 10:56 | 32.39201 | 34.31715 | 9004 ft | 308 kts | 103° |
| 2026-05-05 10:56 | 32.38759 | 34.34179 | 8866 ft | 305 kts | 103° |
| 2026-05-05 10:56 | 32.38319 | 34.36641 | 8754 ft | 306 kts | 103° |
| 2026-05-05 10:57 | 32.37877 | 34.39103 | 8634 ft | 306 kts | 103° |
| 2026-05-05 10:57 | 32.37432 | 34.41563 | 8515 ft | 305 kts | 103° |
| 2026-05-05 10:57 | 32.36989 | 34.44001 | 8388 ft | 300 kts | 103° |
| 2026-05-05 10:57 | 32.36556 | 34.46374 | 8258 ft | 291 kts | 104° |
| 2026-05-05 10:58 | 32.36136 | 34.48675 | 8116 ft | 282 kts | 104° |
| 2026-05-05 10:58 | 32.35728 | 34.50920 | 8042 ft | 278 kts | 104° |
| 2026-05-05 10:58 | 32.35194 | 34.53107 | 7949 ft | 276 kts | 115° |
| 2026-05-05 10:58 | 32.34434 | 34.55187 | 7883 ft | 272 kts | 116° |
| 2026-05-05 10:59 | 32.33696 | 34.57218 | 7748 ft | 267 kts | 115° |
| 2026-05-05 10:59 | 32.32969 | 34.59222 | 7621 ft | 264 kts | 116° |
| 2026-05-05 10:59 | 32.32245 | 34.61214 | 7494 ft | 262 kts | 116° |
| 2026-05-05 10:59 | 32.31527 | 34.63199 | 7371 ft | 263 kts | 116° |
| 2026-05-05 11:00 | 32.30806 | 34.65183 | 7245 ft | 263 kts | 116° |
| 2026-05-05 11:00 | 32.30085 | 34.67163 | 7121 ft | 262 kts | 116° |
| 2026-05-05 11:00 | 32.29368 | 34.69136 | 7001 ft | 261 kts | 116° |
| 2026-05-05 11:00 | 32.28654 | 34.71105 | 6872 ft | 260 kts | 116° |
| 2026-05-05 11:01 | 32.27942 | 34.73066 | 6755 ft | 261 kts | 117° |
| 2026-05-05 11:01 | 32.27230 | 34.75023 | 6624 ft | 258 kts | 116° |
| 2026-05-05 11:01 | 32.26518 | 34.76972 | 6502 ft | 258 kts | 116° |
| 2026-05-05 11:01 | 32.25811 | 34.78906 | 6378 ft | 255 kts | 116° |
| 2026-05-05 11:02 | 32.25187 | 34.80838 | 6197 ft | 250 kts | 109° |
| 2026-05-05 11:02 | 32.24681 | 34.82796 | 5882 ft | 249 kts | 110° |
| 2026-05-05 11:02 | 32.24178 | 34.84734 | 5534 ft | 250 kts | 109° |
| 2026-05-05 11:02 | 32.23658 | 34.86729 | 5254 ft | 249 kts | 109° |
| 2026-05-05 11:03 | 32.23165 | 34.88631 | 5192 ft | 242 kts | 109° |
| 2026-05-05 11:03 | 32.22677 | 34.90523 | 5095 ft | 234 kts | 110° |
| 2026-05-05 11:03 | 32.22208 | 34.92334 | 4997 ft | 234 kts | 110° |
| 2026-05-05 11:03 | 32.21728 | 34.94179 | 4674 ft | 236 kts | 110° |
| 2026-05-05 11:04 | 32.21170 | 34.95976 | 4358 ft | 228 kts | 123° |
| 2026-05-05 11:04 | 32.20232 | 34.97462 | 3845 ft | 224 kts | 143° |
| 2026-05-05 11:04 | 32.19008 | 34.98448 | 3660 ft | 203 kts | 161° |
| 2026-05-05 11:04 | 32.17714 | 34.98931 | 3533 ft | 191 kts | 176° |
| 2026-05-05 11:05 | 32.16424 | 34.98980 | 3330 ft | 182 kts | 192° |
| 2026-05-05 11:05 | 32.15215 | 34.98639 | 3125 ft | 176 kts | 206° |
| 2026-05-05 11:05 | 32.14131 | 34.97992 | 2909 ft | 175 kts | 214° |
| 2026-05-05 11:05 | 32.13075 | 34.97310 | 2678 ft | 171 kts | 214° |
| 2026-05-05 11:06 | 32.12045 | 34.96644 | 2438 ft | 166 kts | 214° |
| 2026-05-05 11:06 | 32.11051 | 34.96001 | 2220 ft | 159 kts | 214° |
| 2026-05-05 11:06 | 32.10127 | 34.95405 | 2012 ft | 147 kts | 216° |
| 2026-05-05 11:06 | 32.09244 | 34.94831 | 1820 ft | 143 kts | 217° |
| 2026-05-05 11:07 | 32.08382 | 34.94271 | 1630 ft | 140 kts | 217° |
| 2026-05-05 11:07 | 32.07527 | 34.93713 | 1428 ft | 144 kts | 214° |
| 2026-05-05 11:07 | 32.06666 | 34.93155 | 1278 ft | 139 kts | 212° |
| 2026-05-05 11:07 | 32.05820 | 34.92611 | 1096 ft | 139 kts | 216° |
| 2026-05-05 11:08 | 32.04964 | 34.92053 | 895 ft | 140 kts | 213° |
| 2026-05-05 11:08 | 32.04114 | 34.91513 | 727 ft | 137 kts | 214° |
| 2026-05-05 11:08 | 32.03280 | 34.90972 | 536 ft | 136 kts | 215° |
| 2026-05-05 11:08 | 32.02434 | 34.90430 | 328 ft | 142 kts | 216° |
| 2026-05-05 11:09 | 32.01583 | 34.89880 | 135 ft | 137 kts | 216° |
| 2026-05-05 11:09 | 32.00856 | 34.89406 | 122 ft | 96 kts | 208° |
| 2026-05-05 11:09 | 32.00421 | 34.89125 | 116 ft | 47 kts | 209° |
| 2026-05-05 11:09 | 32.00208 | 34.88950 | 120 ft | 34 kts | 228° |
| 2026-05-05 11:10 | 32.00115 | 34.88787 | 118 ft | 15 kts | 239° |
| 2026-05-05 11:10 | 32.00086 | 34.88666 | 120 ft | 17 kts | 289° |
| 2026-05-05 11:10 | 32.00148 | 34.88541 | 119 ft | 19 kts | 301° |
| 2026-05-05 11:10 | 32.00220 | 34.88403 | 119 ft | 21 kts | 301° |
| 2026-05-05 11:11 | 32.00299 | 34.88251 | 118 ft | 23 kts | 301° |
| 2026-05-05 11:11 | 32.00390 | 34.88076 | 116 ft | 26 kts | 302° |
| 2026-05-05 11:11 | 32.00452 | 34.87936 | 117 ft | 12 kts | 261° |
| 2026-05-05 11:11 | 32.00382 | 34.87871 | 119 ft | 14 kts | 211° |
| 2026-05-05 11:12 | 32.00304 | 34.87815 | 119 ft | 5 kts | 212° |
| 2026-05-05 11:12 | 32.00274 | 34.87841 | 120 ft | 8 kts | 121° |
| 2026-05-05 11:12 | 32.00254 | 34.87880 | 119 ft | 2 kts | 120° |
| 2026-05-05 11:12 | 32.00252 | 34.87885 | 119 ft | 0 kts | 120° |